createdAt,value
2023-05-20T00:00:01.885Z,1.20
2023-05-20T00:02:30.070Z,1.20
2023-05-20T00:04:58.157Z,1.10
2023-05-20T00:07:26.108Z,1.30
2023-05-20T00:09:54.192Z,1.00
2023-05-20T00:12:22.149Z,1.40
2023-05-20T00:14:51.610Z,1.00
2023-05-20T00:17:20.212Z,1.10
2023-05-20T00:19:48.287Z,1.20
2023-05-20T00:22:16.241Z,1.20
2023-05-20T00:24:44.228Z,1.10
2023-05-20T00:27:12.216Z,1.17
2023-05-20T00:29:40.181Z,1.03
2023-05-20T00:32:09.735Z,1.27
2023-05-20T00:34:37.843Z,1.10
2023-05-20T00:37:06.171Z,1.00
2023-05-20T00:39:34.142Z,1.10
2023-05-20T00:42:03.507Z,1.00
2023-05-20T00:44:31.477Z,0.90
2023-05-20T00:46:59.678Z,1.00
2023-05-20T00:49:29.064Z,1.10
2023-05-20T00:51:57.030Z,1.10
2023-05-20T00:54:24.988Z,1.30
2023-05-20T00:56:52.932Z,1.10
2023-05-20T00:59:21.049Z,1.20
2023-05-20T01:01:49.123Z,1.00
2023-05-20T01:04:17.219Z,1.00
2023-05-20T01:06:47.811Z,1.10
2023-05-20T01:09:15.967Z,1.20
2023-05-20T01:11:47.157Z,1.20
2023-05-20T01:14:15.684Z,1.07
2023-05-20T01:16:44.076Z,1.00
2023-05-20T01:19:16.637Z,1.00
2023-05-20T01:21:45.956Z,1.00
2023-05-20T01:24:15.267Z,1.00
2023-05-20T01:26:43.185Z,1.00
2023-05-20T01:29:13.837Z,1.10
2023-05-20T01:31:41.873Z,0.90
2023-05-20T01:34:09.793Z,1.10
2023-05-20T01:36:37.985Z,1.20
2023-05-20T01:39:07.052Z,1.03
2023-05-20T01:41:36.568Z,1.27
2023-05-20T01:44:04.953Z,1.10
2023-05-20T01:46:34.412Z,1.00
2023-05-20T01:49:02.400Z,1.10
2023-05-20T01:51:33.517Z,1.13
2023-05-20T01:54:01.472Z,1.17
2023-05-20T01:56:29.649Z,1.10
2023-05-20T01:58:59.002Z,1.00
2023-05-20T02:01:26.963Z,1.00
2023-05-20T02:03:54.947Z,1.10
2023-05-20T02:06:24.225Z,1.17
2023-05-20T02:08:52.155Z,1.07
2023-05-20T02:11:20.236Z,1.10
2023-05-20T02:13:48.202Z,1.10
2023-05-20T02:16:17.608Z,0.97
2023-05-20T02:18:45.633Z,1.10
2023-05-20T02:21:18.302Z,0.90
2023-05-20T02:23:46.557Z,1.20
2023-05-20T02:26:14.474Z,1.07
2023-05-20T02:28:46.597Z,1.00
2023-05-20T02:31:15.103Z,1.20
2023-05-20T02:33:44.464Z,1.07
2023-05-20T02:36:12.459Z,1.33
2023-05-20T02:38:40.621Z,1.20
2023-05-20T02:41:08.756Z,1.00
2023-05-20T02:43:37.232Z,0.83
2023-05-20T02:46:05.730Z,1.10
2023-05-20T02:48:34.337Z,1.23
2023-05-20T02:51:03.691Z,1.23
2023-05-20T02:53:31.663Z,1.10
2023-05-20T02:55:59.680Z,1.30
2023-05-20T02:58:29.759Z,1.30
2023-05-20T03:00:58.598Z,1.83
2023-05-20T03:03:27.637Z,1.63
2023-05-20T03:05:55.559Z,1.50
2023-05-20T03:08:26.416Z,1.40
2023-05-20T03:10:54.401Z,1.20
2023-05-20T03:13:22.529Z,1.30
2023-05-20T03:15:50.511Z,1.30
2023-05-20T03:18:18.481Z,1.63
2023-05-20T03:20:47.230Z,1.20
2023-05-20T03:23:15.211Z,1.20
2023-05-20T03:25:44.540Z,1.47
2023-05-20T03:28:12.835Z,1.07
2023-05-20T03:30:40.888Z,1.37
2023-05-20T03:33:08.967Z,1.30
2023-05-20T03:35:37.220Z,1.30
2023-05-20T03:38:05.690Z,1.20
2023-05-20T03:40:36.021Z,1.27
2023-05-20T03:43:06.771Z,1.20
2023-05-20T03:45:35.081Z,1.20
2023-05-20T03:48:07.118Z,1.20
2023-05-20T03:50:36.605Z,1.00
2023-05-20T03:53:04.533Z,1.10
2023-05-20T03:55:39.499Z,1.20
2023-05-20T03:58:09.144Z,1.07
2023-05-20T04:00:37.256Z,1.10
2023-05-20T04:03:05.929Z,1.17
2023-05-20T04:05:34.439Z,1.30
2023-05-20T04:08:04.926Z,1.20
2023-05-20T04:10:33.142Z,1.37
2023-05-20T04:13:01.412Z,1.20
2023-05-20T04:15:30.832Z,1.10
2023-05-20T04:18:01.343Z,1.20
2023-05-20T04:20:29.428Z,1.10
2023-05-20T04:22:59.150Z,1.20
2023-05-20T04:25:27.431Z,1.10
2023-05-20T04:27:57.513Z,1.20
2023-05-20T04:30:25.588Z,1.17
2023-05-20T04:32:55.352Z,1.10
2023-05-20T04:35:25.960Z,1.20
2023-05-20T04:37:55.873Z,1.00
2023-05-20T04:40:24.409Z,1.20
2023-05-20T04:42:53.682Z,1.20
2023-05-20T04:45:23.308Z,1.30
2023-05-20T04:47:53.282Z,1.17
2023-05-20T04:50:22.872Z,1.10
2023-05-20T04:52:51.678Z,1.13
2023-05-20T04:55:21.483Z,1.00
2023-05-20T04:57:49.806Z,1.03
2023-05-20T05:00:18.729Z,1.20
2023-05-20T05:02:46.975Z,1.30
2023-05-20T05:05:15.194Z,1.00
2023-05-20T05:07:44.516Z,1.10
2023-05-20T05:10:13.561Z,1.20
2023-05-20T05:12:41.582Z,1.20
2023-05-20T05:15:10.956Z,1.13
2023-05-20T05:17:39.015Z,1.40
2023-05-20T05:20:09.589Z,1.23
2023-05-20T05:22:39.625Z,1.20
2023-05-20T05:25:10.600Z,1.20
2023-05-20T05:27:38.712Z,1.40
2023-05-20T05:30:09.031Z,1.30
2023-05-20T05:32:37.946Z,1.20
2023-05-20T05:35:08.245Z,1.10
2023-05-20T05:37:36.636Z,1.10
2023-05-20T05:40:07.034Z,1.00
2023-05-20T05:42:36.832Z,1.30
2023-05-20T05:45:06.479Z,1.10
2023-05-20T05:47:34.596Z,1.10
2023-05-20T05:50:02.978Z,1.20
2023-05-20T05:52:33.920Z,1.30
2023-05-20T05:55:03.743Z,1.10
2023-05-20T05:57:32.537Z,1.30
2023-05-20T06:00:02.107Z,1.20
2023-05-20T06:02:36.372Z,1.20
2023-05-20T06:05:04.731Z,1.30
2023-05-20T06:07:32.685Z,1.23
2023-05-20T06:10:01.109Z,1.30
2023-05-20T06:12:29.571Z,1.10
2023-05-20T06:14:57.539Z,1.10
2023-05-20T06:17:26.928Z,1.10
2023-05-20T06:19:55.239Z,1.10
2023-05-20T06:22:23.215Z,1.20
2023-05-20T06:24:51.190Z,1.40
2023-05-20T06:27:19.394Z,1.20
2023-05-20T06:29:47.436Z,1.30
2023-05-20T06:32:15.888Z,1.27
2023-05-20T06:34:45.376Z,1.10
2023-05-20T06:37:14.195Z,1.20
2023-05-20T06:39:45.060Z,1.30
2023-05-20T06:42:13.364Z,1.20
2023-05-20T06:44:48.294Z,1.17
2023-05-20T06:47:37.637Z,1.40
2023-05-20T06:50:08.105Z,1.20
2023-05-20T06:52:37.072Z,1.30
2023-05-20T06:55:06.127Z,1.10
2023-05-20T06:57:35.876Z,1.17
2023-05-20T07:00:04.022Z,1.10
2023-05-20T07:02:34.724Z,1.20
2023-05-20T07:05:02.888Z,1.10
2023-05-20T07:07:32.182Z,1.23
2023-05-20T07:10:00.289Z,1.23
2023-05-20T07:12:28.402Z,1.30
2023-05-20T07:14:56.636Z,1.23
2023-05-20T07:17:25.047Z,1.20
2023-05-20T07:19:53.154Z,1.20
2023-05-20T07:22:21.339Z,1.03
2023-05-20T07:25:01.207Z,1.30
2023-05-20T07:27:30.247Z,1.20
2023-05-20T07:30:01.199Z,1.40
2023-05-20T07:32:30.590Z,1.20
2023-05-20T07:34:58.806Z,1.20
2023-05-20T07:37:26.917Z,1.20
2023-05-20T07:39:54.926Z,1.13
2023-05-20T07:42:24.459Z,1.27
2023-05-20T07:44:57.575Z,1.23
2023-05-20T07:47:25.767Z,1.10
2023-05-20T07:49:54.502Z,1.20
2023-05-20T07:52:22.536Z,1.20
2023-05-20T07:54:50.891Z,1.30
2023-05-20T07:57:18.858Z,1.10
2023-05-20T07:59:48.188Z,1.07
2023-05-20T08:02:17.683Z,1.30
2023-05-20T08:04:46.231Z,1.17
2023-05-20T08:07:15.117Z,1.40
2023-05-20T08:09:52.853Z,1.23
2023-05-20T08:12:21.553Z,1.20
2023-05-20T08:14:50.891Z,1.23
2023-05-20T08:17:19.393Z,1.40
2023-05-20T08:19:47.372Z,1.20
2023-05-20T08:22:15.631Z,1.20
2023-05-20T08:24:44.010Z,1.23
2023-05-20T08:27:12.062Z,1.40
2023-05-20T08:29:40.031Z,1.20
2023-05-20T08:32:09.716Z,1.30
2023-05-20T08:34:37.835Z,1.30
2023-05-20T08:37:06.183Z,1.30
2023-05-20T08:39:34.302Z,1.20
2023-05-20T08:42:03.084Z,1.30
2023-05-20T08:44:31.069Z,1.10
2023-05-20T08:46:59.304Z,1.20
2023-05-20T08:49:29.007Z,1.20
2023-05-20T08:51:57.302Z,1.00
2023-05-20T08:54:26.638Z,1.30
2023-05-20T08:56:57.069Z,1.23
2023-05-20T08:59:27.440Z,1.33
2023-05-20T09:01:55.468Z,1.10
2023-05-20T09:04:23.449Z,1.40
2023-05-20T09:06:53.021Z,1.40
2023-05-20T09:09:22.566Z,1.40
2023-05-20T09:11:50.628Z,1.20
2023-05-20T09:14:18.586Z,1.27
2023-05-20T09:16:46.612Z,1.20
2023-05-20T09:19:14.622Z,1.37
2023-05-20T09:21:42.942Z,1.23
2023-05-20T09:24:12.299Z,1.50
2023-05-20T09:26:40.280Z,1.33
2023-05-20T09:29:08.753Z,1.10
2023-05-20T09:31:39.094Z,1.30
2023-05-20T09:34:07.997Z,1.20
2023-05-20T09:36:36.967Z,1.33
2023-05-20T09:39:05.767Z,1.30
2023-05-20T09:41:39.442Z,1.30
2023-05-20T09:44:07.730Z,1.53
2023-05-20T09:46:38.450Z,1.40
2023-05-20T09:49:10.732Z,1.40
2023-05-20T09:51:39.009Z,1.30
2023-05-20T09:54:08.437Z,1.20
2023-05-20T09:56:39.806Z,1.30
2023-05-20T09:59:08.543Z,1.27
2023-05-20T10:01:36.656Z,1.40
2023-05-20T10:04:07.102Z,1.33
2023-05-20T10:07:07.038Z,1.40
2023-05-20T10:09:44.118Z,1.27
2023-05-20T10:12:29.363Z,1.40
2023-05-20T10:15:08.700Z,1.40
2023-05-20T10:17:41.445Z,1.40
2023-05-20T10:20:11.808Z,1.70
2023-05-20T10:22:40.339Z,1.40
2023-05-20T10:25:13.377Z,1.37
2023-05-20T10:27:46.395Z,1.57
2023-05-20T10:30:17.360Z,1.60
2023-05-20T10:32:50.769Z,1.60
2023-05-20T10:35:23.260Z,1.40
2023-05-20T10:37:52.051Z,1.70
2023-05-20T10:40:23.772Z,1.23
2023-05-20T10:42:53.128Z,1.53
2023-05-20T10:45:28.842Z,1.73
2023-05-20T10:47:57.884Z,1.60
2023-05-20T10:50:29.964Z,1.47
2023-05-20T10:53:05.145Z,1.70
2023-05-20T10:55:38.299Z,1.30
2023-05-20T10:58:07.833Z,1.50
2023-05-20T11:00:36.397Z,1.73
2023-05-20T11:03:05.232Z,1.53
2023-05-20T11:05:33.560Z,1.60
2023-05-20T11:08:04.463Z,1.30
2023-05-20T11:10:36.418Z,1.60
2023-05-20T11:13:04.876Z,1.50
2023-05-20T11:15:35.083Z,1.53
2023-05-20T11:18:04.275Z,1.60
2023-05-20T11:20:35.394Z,1.60
2023-05-20T11:23:03.830Z,1.70
2023-05-20T11:25:36.634Z,1.50
2023-05-20T11:28:04.619Z,1.70
2023-05-20T11:30:34.113Z,1.57
2023-05-20T11:33:02.718Z,1.73
2023-05-20T11:35:32.122Z,1.67
2023-05-20T11:38:03.311Z,1.80
2023-05-20T11:40:35.838Z,1.70
2023-05-20T11:43:07.382Z,1.70
2023-05-20T11:45:42.217Z,1.90
2023-05-20T11:48:12.450Z,1.57
2023-05-20T11:50:42.014Z,1.80
2023-05-20T11:53:11.171Z,1.63
2023-05-20T11:55:46.656Z,1.80
2023-05-20T11:58:17.119Z,1.90
2023-05-20T12:00:52.882Z,1.83
2023-05-20T12:03:23.067Z,2.10
2023-05-20T12:05:53.676Z,1.83
2023-05-20T12:08:22.759Z,2.27
2023-05-20T12:10:50.969Z,2.10
2023-05-20T12:13:22.350Z,2.07
2023-05-20T12:15:51.640Z,1.87
2023-05-20T12:18:19.566Z,1.97
2023-05-20T12:20:47.485Z,1.93
2023-05-20T12:23:15.721Z,2.10
2023-05-20T12:25:45.900Z,1.70
2023-05-20T12:28:13.889Z,2.00
2023-05-20T12:30:41.982Z,1.80
2023-05-20T12:33:11.624Z,2.27
2023-05-20T12:35:40.376Z,2.00
2023-05-20T12:38:08.405Z,1.80
2023-05-20T12:40:36.728Z,1.97
2023-05-20T12:43:05.421Z,1.80
2023-05-20T12:45:33.408Z,2.00
2023-05-20T12:48:01.392Z,2.00
2023-05-20T12:50:30.743Z,1.90
2023-05-20T12:52:58.697Z,2.10
2023-05-20T12:55:26.620Z,1.93
2023-05-20T12:57:57.038Z,1.90
2023-05-20T13:00:25.069Z,1.90
2023-05-20T13:02:54.741Z,2.07
2023-05-20T13:05:23.796Z,2.10
2023-05-20T13:07:54.209Z,1.87
2023-05-20T13:10:28.835Z,2.30
2023-05-20T13:13:00.186Z,2.20
2023-05-20T13:15:30.095Z,2.37
2023-05-20T13:17:59.583Z,2.20
2023-05-20T13:20:30.043Z,2.33
2023-05-20T13:23:01.800Z,2.30
2023-05-20T13:25:29.743Z,1.90
2023-05-20T13:27:57.702Z,2.20
2023-05-20T13:30:25.872Z,2.03
2023-05-20T13:32:53.778Z,2.00
2023-05-20T13:35:21.887Z,1.90
2023-05-20T13:37:49.796Z,2.00
2023-05-20T13:40:19.308Z,1.97
2023-05-20T13:42:47.224Z,2.23
2023-05-20T13:45:15.188Z,2.00
2023-05-20T13:47:43.220Z,2.20
2023-05-20T13:50:12.535Z,1.97
2023-05-20T13:52:40.595Z,2.10
2023-05-20T13:55:11.539Z,2.23
2023-05-20T13:57:40.864Z,2.50
2023-05-20T14:00:10.273Z,2.63
2023-05-20T14:02:38.388Z,2.67
2023-05-20T14:05:08.197Z,2.43
2023-05-20T14:07:36.254Z,2.70
2023-05-20T14:10:04.367Z,2.70
2023-05-20T14:12:32.374Z,2.80
2023-05-20T14:15:01.833Z,2.70
2023-05-20T14:17:29.862Z,2.70
2023-05-20T14:19:57.848Z,2.67
2023-05-20T14:22:25.768Z,2.83
2023-05-20T14:24:53.679Z,2.60
2023-05-20T14:27:21.649Z,2.83
2023-05-20T14:29:49.649Z,2.77
2023-05-20T14:32:18.958Z,3.37
2023-05-20T14:34:46.901Z,2.87
2023-05-20T14:37:15.553Z,2.70
2023-05-20T14:39:43.510Z,2.90
2023-05-20T14:42:11.464Z,2.60
2023-05-20T14:44:39.487Z,3.03
2023-05-20T14:47:08.011Z,3.17
2023-05-20T14:49:39.078Z,2.47
2023-05-20T14:52:07.643Z,3.17
2023-05-20T14:54:35.634Z,2.80
2023-05-20T14:57:03.953Z,2.90
2023-05-20T14:59:31.987Z,3.10
2023-05-20T15:01:59.986Z,2.83
2023-05-20T15:04:28.349Z,3.07
2023-05-20T15:06:57.700Z,2.60
2023-05-20T15:09:26.018Z,2.80
2023-05-20T15:11:56.620Z,2.77
2023-05-20T15:14:24.557Z,2.93
2023-05-20T15:16:52.588Z,2.67
2023-05-20T15:19:20.648Z,2.93
2023-05-20T15:21:49.530Z,2.97
2023-05-20T15:24:18.816Z,3.10
2023-05-20T15:26:46.821Z,3.10
2023-05-20T15:29:14.796Z,3.03
2023-05-20T15:31:42.727Z,2.83
2023-05-20T15:34:10.729Z,2.60
2023-05-20T15:36:38.718Z,2.80
2023-05-20T15:39:06.755Z,2.90
2023-05-20T15:41:39.854Z,2.97
2023-05-20T15:44:08.661Z,3.03
2023-05-20T15:46:36.702Z,3.00
2023-05-20T15:49:04.806Z,2.60
2023-05-20T15:51:32.819Z,2.80
2023-05-20T15:54:00.828Z,2.73
2023-05-20T15:56:30.773Z,3.03
2023-05-20T15:59:01.125Z,2.93
2023-05-20T16:01:32.169Z,3.10
2023-05-20T16:04:00.272Z,3.23
2023-05-20T16:06:28.343Z,3.10
2023-05-20T16:08:56.649Z,3.40
2023-05-20T16:11:24.849Z,2.87
2023-05-20T16:13:52.781Z,2.90
2023-05-20T16:16:25.118Z,2.90
2023-05-20T16:18:53.907Z,2.97
2023-05-20T16:21:25.000Z,2.87
2023-05-20T16:23:53.640Z,2.80
2023-05-20T16:26:22.654Z,2.90
2023-05-20T16:28:50.610Z,2.97
2023-05-20T16:31:18.729Z,2.93
2023-05-20T16:33:48.266Z,3.10
2023-05-20T16:36:16.256Z,3.20
2023-05-20T16:38:44.186Z,3.23
2023-05-20T16:41:12.838Z,3.10
2023-05-20T16:43:41.717Z,3.30
2023-05-20T16:46:09.698Z,3.30
2023-05-20T16:48:37.687Z,3.17
2023-05-20T16:51:07.183Z,3.60
2023-05-20T16:53:35.127Z,3.30
2023-05-20T16:56:03.086Z,3.13
2023-05-20T16:58:31.072Z,3.70
2023-05-20T17:00:59.048Z,3.40
2023-05-20T17:03:27.027Z,3.60
2023-05-20T17:05:54.953Z,3.80
2023-05-20T17:08:24.242Z,3.50
2023-05-20T17:10:54.116Z,3.70
2023-05-20T17:13:22.532Z,3.40
2023-05-20T17:15:50.573Z,3.77
2023-05-20T17:18:18.497Z,3.70
2023-05-20T17:20:46.422Z,3.70
2023-05-20T17:23:14.838Z,3.53
2023-05-20T17:25:44.347Z,3.67
2023-05-20T17:28:14.610Z,3.50
2023-05-20T17:30:42.580Z,3.73
2023-05-20T17:33:11.040Z,3.30
2023-05-20T17:35:39.164Z,3.30
2023-05-20T17:38:07.080Z,3.70
2023-05-20T17:40:35.212Z,3.50
2023-05-20T17:43:04.683Z,3.60
2023-05-20T17:45:32.623Z,3.80
2023-05-20T17:48:00.844Z,3.77
2023-05-20T17:50:28.847Z,3.30
2023-05-20T17:52:56.810Z,3.50
2023-05-20T17:55:24.745Z,3.67
2023-05-20T17:57:52.654Z,3.63
2023-05-20T18:00:22.915Z,3.50
2023-05-20T18:02:54.756Z,3.70
2023-05-20T18:05:22.793Z,3.97
2023-05-20T18:07:53.229Z,3.63
2023-05-20T18:10:21.434Z,3.40
2023-05-20T18:12:54.778Z,3.53
2023-05-20T18:15:25.531Z,3.97
2023-05-20T18:17:54.134Z,4.23
2023-05-20T18:20:22.148Z,3.87
2023-05-20T18:22:52.290Z,3.80
2023-05-20T18:25:20.529Z,4.10
2023-05-20T18:27:48.505Z,4.10
2023-05-20T18:30:19.379Z,3.50
2023-05-20T18:32:48.722Z,3.70
2023-05-20T18:35:16.765Z,3.77
2023-05-20T18:37:44.715Z,3.93
2023-05-20T18:40:13.600Z,4.93
2023-05-20T18:42:41.497Z,3.87
2023-05-20T18:45:10.531Z,4.00
2023-05-20T18:47:38.591Z,3.50
2023-05-20T18:50:09.129Z,3.20
2023-05-20T18:52:37.152Z,3.60
2023-05-20T18:55:06.003Z,3.83
2023-05-20T18:57:33.933Z,3.70
2023-05-20T19:00:02.483Z,3.40
2023-05-20T19:02:30.536Z,3.40
2023-05-20T19:04:58.544Z,3.33
2023-05-20T19:07:27.921Z,3.60
2023-05-20T19:09:56.838Z,3.70
2023-05-20T19:12:24.807Z,3.40
2023-05-20T19:14:52.879Z,3.27
2023-05-20T19:17:21.405Z,3.30
2023-05-20T19:19:49.422Z,3.60
2023-05-20T19:22:17.480Z,3.30
2023-05-20T19:24:46.763Z,3.10
2023-05-20T19:27:14.726Z,3.40
2023-05-20T19:29:43.069Z,3.20
2023-05-20T19:32:11.193Z,3.27
2023-05-20T19:34:42.497Z,3.30
2023-05-20T19:37:10.493Z,3.50
2023-05-20T19:39:38.554Z,3.20
2023-05-20T19:42:08.004Z,3.43
2023-05-20T19:44:36.000Z,3.07
2023-05-20T19:47:05.558Z,3.07
2023-05-20T19:49:33.726Z,3.50
2023-05-20T19:52:01.658Z,3.20
2023-05-20T19:54:29.641Z,3.23
2023-05-20T19:56:57.575Z,3.20
2023-05-20T19:59:26.918Z,3.57
2023-05-20T20:01:54.926Z,3.33
2023-05-20T20:04:22.887Z,3.20
2023-05-20T20:06:51.022Z,3.03
2023-05-20T20:09:19.004Z,3.30
2023-05-20T20:11:46.992Z,3.47
2023-05-20T20:14:14.980Z,3.20
2023-05-20T20:16:48.642Z,3.20
2023-05-20T20:19:18.585Z,2.97
2023-05-20T20:21:48.191Z,3.13
2023-05-20T20:24:16.264Z,3.20
2023-05-20T20:26:49.773Z,2.90
2023-05-20T20:29:17.917Z,2.90
2023-05-20T20:31:47.305Z,3.00
2023-05-20T20:34:15.341Z,2.93
2023-05-20T20:36:45.077Z,2.97
2023-05-20T20:39:18.782Z,2.90
2023-05-20T20:41:47.276Z,2.93
2023-05-20T20:44:18.545Z,2.97
2023-05-20T20:46:50.710Z,2.80
2023-05-20T20:49:20.227Z,3.07
2023-05-20T20:51:51.366Z,2.90
2023-05-20T20:54:19.353Z,3.30
2023-05-20T20:56:47.473Z,3.40
2023-05-20T20:59:16.024Z,3.00
2023-05-20T21:01:45.032Z,3.20
2023-05-20T21:04:14.476Z,3.17
2023-05-20T21:06:45.832Z,3.20
2023-05-20T21:09:13.958Z,3.20
2023-05-20T21:11:42.836Z,2.90
2023-05-20T21:14:10.873Z,3.10
2023-05-20T21:16:38.958Z,2.90
2023-05-20T21:19:07.065Z,3.07
2023-05-20T21:21:36.527Z,2.90
2023-05-20T21:24:04.690Z,2.97
2023-05-20T21:26:32.781Z,2.80
2023-05-20T21:29:00.729Z,2.97
2023-05-20T21:31:28.765Z,3.30
2023-05-20T21:33:59.894Z,3.23
2023-05-20T21:36:27.859Z,3.00
2023-05-20T21:38:57.149Z,3.00
2023-05-20T21:41:25.155Z,2.70
2023-05-20T21:43:56.192Z,3.00
2023-05-20T21:46:24.176Z,3.00
2023-05-20T21:48:52.143Z,2.80
2023-05-20T21:51:20.100Z,3.13
2023-05-20T21:53:49.255Z,3.00
2023-05-20T21:56:18.620Z,3.40
2023-05-20T21:58:46.526Z,3.00
2023-05-20T22:01:14.533Z,3.07
2023-05-20T22:03:47.237Z,3.00
2023-05-20T22:06:16.998Z,3.10
2023-05-20T22:08:45.284Z,3.00
2023-05-20T22:11:13.232Z,2.73
2023-05-20T22:13:46.082Z,3.00
2023-05-20T22:16:14.423Z,2.80
2023-05-20T22:18:42.632Z,3.03
2023-05-20T22:21:11.083Z,2.97
2023-05-20T22:23:39.060Z,3.00
2023-05-20T22:26:09.945Z,2.70
2023-05-20T22:28:37.935Z,2.90
2023-05-20T22:31:07.396Z,2.90
2023-05-20T22:33:36.890Z,3.00
2023-05-20T22:36:05.058Z,3.03
2023-05-20T22:38:33.038Z,3.00
2023-05-20T22:41:00.989Z,3.10
2023-05-20T22:43:28.918Z,2.60
2023-05-20T22:45:56.895Z,3.00
2023-05-20T22:48:26.224Z,3.03
2023-05-20T22:50:55.994Z,2.90
2023-05-20T22:53:23.958Z,2.97
2023-05-20T22:55:51.910Z,2.57
2023-05-20T22:58:19.886Z,2.80
2023-05-20T23:00:47.916Z,3.10
2023-05-20T23:03:15.910Z,3.10
2023-05-20T23:05:45.413Z,2.97
2023-05-20T23:08:15.283Z,2.77
2023-05-20T23:10:43.252Z,3.20
2023-05-20T23:13:11.262Z,3.03
2023-05-20T23:15:42.239Z,3.00
2023-05-20T23:18:15.944Z,3.00
2023-05-20T23:20:45.340Z,3.03
2023-05-20T23:23:13.323Z,3.10
2023-05-20T23:25:42.376Z,3.33
2023-05-20T23:28:11.630Z,3.00
2023-05-20T23:30:39.637Z,3.10
2023-05-20T23:33:07.763Z,3.17
2023-05-20T23:35:36.037Z,3.37
2023-05-20T23:38:05.545Z,2.80
2023-05-20T23:40:33.493Z,3.30
2023-05-20T23:43:01.412Z,3.00
2023-05-20T23:45:29.543Z,3.00
2023-05-20T23:47:57.499Z,3.00
2023-05-20T23:50:27.738Z,3.10
2023-05-20T23:52:55.678Z,3.20
2023-05-20T23:55:24.977Z,2.93
2023-05-20T23:57:52.914Z,2.87
